地図

経路データ

SID SEASON NUMBER BASIN SUBBASIN NAME ISO_TIME NATURE LAT LON WMO_WIND WMO_PRES WMO_AGENCY TRACK_TYPE DIST2LAND LANDFALL IFLAG USA_AGENCY USA_ATCF_ID USA_LAT USA_LON USA_RECORD USA_STATUS USA_WIND USA_PRES USA_SSHS USA_R34_NE USA_R34_SE USA_R34_SW USA_R34_NW USA_R50_NE USA_R50_SE USA_R50_SW USA_R50_NW USA_R64_NE USA_R64_SE USA_R64_SW USA_R64_NW USA_POCI USA_ROCI USA_RMW USA_EYE TOKYO_LAT TOKYO_LON TOKYO_GRADE TOKYO_WIND TOKYO_PRES TOKYO_R50_DIR TOKYO_R50_LONG TOKYO_R50_SHORT TOKYO_R30_DIR TOKYO_R30_LONG TOKYO_R30_SHORT TOKYO_LAND CMA_LAT CMA_LON CMA_CAT CMA_WIND CMA_PRES HKO_LAT HKO_LON HKO_CAT HKO_WIND HKO_PRES NEWDELHI_LAT NEWDELHI_LON NEWDELHI_GRADE NEWDELHI_WIND NEWDELHI_PRES NEWDELHI_CI NEWDELHI_DP NEWDELHI_POCI REUNION_LAT REUNION_LON REUNION_TYPE REUNION_WIND REUNION_PRES REUNION_TNUM REUNION_CI REUNION_RMW REUNION_R34_NE REUNION_R34_SE REUNION_R34_SW REUNION_R34_NW REUNION_R50_NE REUNION_R50_SE REUNION_R50_SW REUNION_R50_NW REUNION_R64_NE REUNION_R64_SE REUNION_R64_SW REUNION_R64_NW BOM_LAT BOM_LON BOM_TYPE BOM_WIND BOM_PRES BOM_TNUM BOM_CI BOM_RMW BOM_R34_NE BOM_R34_SE BOM_R34_SW BOM_R34_NW BOM_R50_NE BOM_R50_SE BOM_R50_SW BOM_R50_NW BOM_R64_NE BOM_R64_SE BOM_R64_SW BOM_R64_NW BOM_ROCI BOM_POCI BOM_EYE BOM_POS_METHOD BOM_PRES_METHOD NADI_LAT NADI_LON NADI_CAT NADI_WIND NADI_PRES WELLINGTON_LAT WELLINGTON_LON WELLINGTON_WIND WELLINGTON_PRES DS824_LAT DS824_LON DS824_STAGE DS824_WIND DS824_PRES TD9636_LAT TD9636_LON TD9636_STAGE TD9636_WIND TD9636_PRES TD9635_LAT TD9635_LON TD9635_WIND TD9635_PRES TD9635_ROCI NEUMANN_LAT NEUMANN_LON NEUMANN_CLASS NEUMANN_WIND NEUMANN_PRES MLC_LAT MLC_LON MLC_CLASS MLC_WIND MLC_PRES USA_GUST BOM_GUST BOM_GUST_PER REUNION_GUST REUNION_GUST_PER USA_SEAHGT USA_SEARAD_NE USA_SEARAD_SE USA_SEARAD_SW USA_SEARAD_NW STORM_SPEED STORM_DIR
1957016S11127 1957 7 SI WA NOT_NAMED 1957-01-15 16:00:00 NR -10.5000 127.200 main 184 184 __________O___ -1 -10.5000 127.200 7 0 0
1957016S11127 1957 7 SI WA NOT_NAMED 1957-01-15 18:00:00 TS -10.4986 127.192 main 184 180 O________OP___ jtwc_sh SH141957 -10.5000 127.200 15 -1 -10.5000 127.200 TC 15 -10.4972 127.184 7 1 280
1957016S11127 1957 7 SI WA NOT_NAMED 1957-01-15 21:00:00 TS -10.4902 127.146 main 180 180 P________PP___ SH141957 -10.4825 127.135 15 -1 -10.4825 127.135 TC 15 -10.5004 127.161 7 1 263
1957016S11127 1957 7 SI WA NOT_NAMED 1957-01-16 00:00:00 TS -10.5089 127.114 main 180 180 O________OP___ jtwc_sh SH141957 -10.5000 127.100 15 -1 -10.5000 127.100 TC 15 -10.5223 127.136 7 1 207
1957016S11127 1957 7 SI WA NOT_NAMED 1957-01-16 03:00:00 TS -10.5764 127.108 main 190 190 P________PP___ SH141957 -10.5775 127.107 17 -1 -10.5775 127.107 TC 17 -10.5741 127.109 7 2 0
1957016S11127 1957 7 SI WA NOT_NAMED 1957-01-16 04:00:00 TS -10.6097 127.107 main 190 190 P________PO___ SH141957 -10.6146 127.110 18 -1 -10.6146 127.110 TC 18 -10.6000 127.100 7 2 0
1957016S11127 1957 7 SI WA NOT_NAMED 1957-01-16 06:00:00 TS -10.6887 127.093 main 201 201 O________OP___ jtwc_sh SH141957 -10.7000 127.100 20 -1 -10.7000 127.100 TC 20 -10.6662 127.080 7 3 199
1957016S11127 1957 7 SI WA NOT_NAMED 1957-01-16 09:00:00 TS -10.8273 127.022 main 208 208 P________PP___ SH141957 -10.8425 127.015 20 -1 -10.8425 127.015 TC 20 -10.7968 127.037 7 3 209
1957016S11127 1957 7 SI WA NOT_NAMED 1957-01-16 12:00:00 TS -10.9856 126.922 main 228 228 O________OP___ jtwc_sh SH141957 -11.0000 126.900 20 -1 -11.0000 126.900 TC 20 -10.9569 126.966 7 4 212
1957016S11127 1957 7 SI WA NOT_NAMED 1957-01-16 15:00:00 TS -11.1407 126.827 main 237 237 P________PP___ SH141957 -11.1425 126.815 20 -1 -11.1425 126.815 TC 20 -11.1371 126.851 7 4 212
1957016S11127 1957 7 SI WA NOT_NAMED 1957-01-16 16:00:00 TS -11.1947 126.788 main 248 247 P________PO___ SH141957 -11.1921 126.782 20 -1 -11.1921 126.782 TC 20 -11.2000 126.800 1 15 4 216
1957016S11127 1957 7 SI WA NOT_NAMED 1957-01-16 18:00:00 TS -11.3010 126.708 main 258 258 O________OP___ jtwc_sh SH141957 -11.3000 126.700 20 -1 -11.3000 126.700 TC 20 -11.3031 126.725 1 4 218
1957016S11127 1957 7 SI WA NOT_NAMED 1957-01-16 21:00:00 TS -11.4799 126.558 main 259 241 P________PP___ SH141957 -11.4849 126.552 22 -1 -11.4849 126.552 TC 22 -11.4700 126.570 1 6 225
1957016S11127 1957 7 SI WA NOT_NAMED 1957-01-17 00:00:00 TS -11.6886 126.309 main 244 234 O________OP___ jtwc_sh SH141957 -11.7000 126.300 25 -1 -11.7000 126.300 TC 25 -11.6659 126.328 1 7 234
1957016S11127 1957 7 SI WA NOT_NAMED 1957-01-17 03:00:00 TS -11.9155 125.946 main 236 224 P________PP___ SH141957 -11.9197 125.940 25 -1 -11.9197 125.940 TC 25 -11.9069 125.958 1 9 238
1957016S11127 1957 7 SI WA NOT_NAMED 1957-01-17 04:00:00 TS -12.0026 125.788 main 226 211 P________PO___ SH141957 -12.0039 125.782 25 -1 -12.0039 125.782 TC 25 -12.0000 125.800 1 12 241
1957016S11127 1957 7 SI WA NOT_NAMED 1957-01-17 06:00:00 TS -12.2098 125.398 main 215 209 O________OP___ jtwc_sh SH141957 -12.2000 125.400 25 -1 -12.2000 125.400 TC 25 -12.2293 125.394 1 15 242
1957016S11127 1957 7 SI WA NOT_NAMED 1957-01-17 09:00:00 TS -12.5960 124.650 main 218 215 P________PP___ SH141957 -12.5852 124.645 22 -1 -12.5852 124.645 TC 22 -12.6175 124.658 1 17 243
1957016S11127 1957 7 SI WA NOT_NAMED 1957-01-17 12:00:00 TS -13.0064 123.816 main 234 233 O________OP___ jtwc_sh SH141957 -13.0000 123.800 20 -1 -13.0000 123.800 TC 20 -13.0191 123.847 1 18 243
1957016S11127 1957 7 SI WA NOT_NAMED 1957-01-17 15:00:00 TS -13.3834 123.029 main 272 272 P________PP___ SH141957 -13.3799 123.020 20 -1 -13.3799 123.020 TC 20 -13.3904 123.048 1 17 244
1957016S11127 1957 7 SI WA NOT_NAMED 1957-01-17 16:00:00 TS -13.4971 122.781 main 286 286 P________PO___ SH141957 -13.4957 122.771 20 -1 -13.4957 122.771 TC 20 -13.5000 122.800 1 20 15 246
1957016S11127 1957 7 SI WA NOT_NAMED 1957-01-17 18:00:00 TS -13.6954 122.309 main 310 310 O________OP___ jtwc_sh SH141957 -13.7000 122.300 20 -1 -13.7000 122.300 TC 20 -13.6863 122.327 1 20 14 249
1957016S11127 1957 7 SI WA NOT_NAMED 1957-01-17 21:00:00 TS -13.9273 121.644 main 322 317 P________PP___ SH141957 -13.9299 121.632 17 -1 -13.9299 121.632 TC 17 -13.9221 121.667 1 22 12 251
1957016S11127 1957 7 SI WA NOT_NAMED 1957-01-18 00:00:00 TS -14.1036 121.103 main 330 328 O________OP___ jtwc_sh SH141957 -14.1000 121.100 15 -1 -14.1000 121.100 TC 15 -14.1109 121.108 1 23 10 250
1957016S11127 1957 7 SI WA NOT_NAMED 1957-01-18 03:00:00 TS -14.2678 120.695 main 341 341 P________PP___ SH141957 -14.2723 120.695 15 -1 -14.2723 120.695 TC 15 -14.2587 120.696 1 24 8 247
1957016S11127 1957 7 SI WA NOT_NAMED 1957-01-18 04:00:00 TS -14.3141 120.603 main 348 348 P________PO___ SH141957 -14.3211 120.604 15 -1 -14.3211 120.604 TC 15 -14.3000 120.600 1 25 5 237
1957016S11127 1957 7 SI WA NOT_NAMED 1957-01-18 06:00:00 TS -14.3918 120.498 main 348 340 O________OP___ jtwc_sh SH141957 -14.4000 120.500 15 -1 -14.4000 120.500 TC 15 -14.3753 120.493 1 24 2 205
1957016S11127 1957 7 SI WA NOT_NAMED 1957-01-18 09:00:00 TS -14.4574 120.529 main 340 325 P________PP___ SH141957 -14.4575 120.555 17 -1 -14.4575 120.555 TC 17 -14.4574 120.478 1 22 2 127
1957016S11127 1957 7 SI WA NOT_NAMED 1957-01-18 12:00:00 TS -14.5062 120.655 main 325 317 O________OP___ jtwc_sh SH141957 -14.5000 120.700 20 -1 -14.5000 120.700 TC 20 -14.5187 120.565 1 21 2 127
1957016S11127 1957 7 SI WA NOT_NAMED 1957-01-18 15:00:00 TS -14.5876 120.706 main 317 317 P________PP___ SH141957 -14.5925 120.723 20 -1 -14.5925 120.723 TC 20 -14.5777 120.673 1 20 2 154
1957016S11127 1957 7 SI WA NOT_NAMED 1957-01-18 16:00:00 TS -14.6186 120.713 main 317 309 P________PO___ SH141957 -14.6279 120.719 20 -1 -14.6279 120.719 TC 20 -14.6000 120.700 1 20 2 0
1957016S11127 1957 7 SI WA NOT_NAMED 1957-01-18 18:00:00 TS -14.6861 120.702 main 309 301 O________OP___ jtwc_sh SH141957 -14.7000 120.700 20 -1 -14.7000 120.700 TC 20 -14.6583 120.707 1 19 2 190
1957016S11127 1957 7 SI WA NOT_NAMED 1957-01-18 21:00:00 TS -14.7840 120.677 main 301 301 P________PP___ SH141957 -14.8000 120.665 22 -1 -14.8000 120.665 TC 22 -14.7519 120.700 1 17 2 201
1957016S11127 1957 7 SI WA NOT_NAMED 1957-01-19 00:00:00 TS -14.8844 120.618 main 301 301 O________OP___ jtwc_sh SH141957 -14.9000 120.600 25 -1 -14.9000 120.600 TC 25 -14.8531 120.654 1 16 2 211
1957016S11127 1957 7 SI WA NOT_NAMED 1957-01-19 01:00:00 TS -14.9016 120.604 1000 bom main 301 301 P_____O__PP___ SH141957 -14.9333 120.580 25 -1 -14.7000 120.700 1000 -14.9333 120.580 TC 25 -14.8885 120.627 1 16 2 227
1957016S11127 1957 7 SI WA NOT_NAMED 1957-01-19 03:00:00 TS -14.9601 120.541 main 301 301 P_____P__PP___ SH141957 -15.0000 120.530 25 -1 -14.7965 120.565 -15.0000 120.530 TC 25 -14.9620 120.550 1 15 3 232
1957016S11127 1957 7 SI WA NOT_NAMED 1957-01-19 04:00:00 TS -14.9867 120.497 main 301 301 P_____P__PO___ SH141957 -15.0333 120.496 25 -1 -14.8450 120.496 -15.0333 120.496 TC 25 -15.0000 120.500 1 15 4 238
1957016S11127 1957 7 SI WA NOT_NAMED 1957-01-19 06:00:00 TS -15.0550 120.384 main 301 301 O_____P__OP___ jtwc_sh SH141957 -15.1000 120.400 25 -1 -14.9424 120.354 -15.1000 120.400 TC 25 -15.0776 120.384 1 15 4 241
1957016S11127 1957 7 SI WA NOT_NAMED 1957-01-19 09:00:00 TS -15.1691 120.162 main 309 316 P_____P__PP___ SH141957 -15.1925 120.187 22 -1 -15.0910 120.121 -15.1925 120.187 TC 22 -15.2002 120.153 1 17 5 244
1957016S11127 1957 7 SI WA NOT_NAMED 1957-01-19 12:00:00 TS -15.2930 119.879 main 326 326 O_____P__OP___ jtwc_sh SH141957 -15.3000 119.900 20 -1 -15.2443 119.855 -15.3000 119.900 TC 20 -15.3277 119.863 1 18 6 245
1957016S11127 1957 7 SI WA NOT_NAMED 1957-01-19 15:00:00 TS -15.4402 119.556 main 345 348 P_____P__PP___ SH141957 -15.4499 119.580 17 -1 -15.4038 119.542 -15.4499 119.580 TC 17 -15.4570 119.523 1 19 7 245
1957016S11127 1957 7 SI WA NOT_NAMED 1957-01-19 16:00:00 TS -15.4908 119.436 main 357 357 P_____P__PO___ SH141957 -15.5024 119.460 16 -1 -15.4586 119.426 -15.5024 119.460 TC 16 -15.5000 119.400 1 20 8 247
1957016S11127 1957 7 SI WA NOT_NAMED 1957-01-19 18:00:00 TS -15.5918 119.186 main 371 371 O_____P__OP___ jtwc_sh SH141957 -15.6000 119.200 15 -1 -15.5711 119.171 -15.6000 119.200 TC 15 -15.5962 119.172 1 20 8 250
1957016S11127 1957 7 SI WA NOT_NAMED 1957-01-19 21:00:00 TS -15.7221 118.766 main 404 409 P_____P__PP___ SH141957 -15.6999 118.772 17 -1 -15.7478 118.727 -15.6999 118.772 TC 17 -15.7408 118.793 1 22 9 253
1957016S11127 1957 7 SI WA NOT_NAMED 1957-01-20 00:00:00 TS -15.8546 118.279 main 444 444 O_____P__OP___ jtwc_sh SH141957 -15.8000 118.300 20 -1 -15.9350 118.198 -15.8000 118.300 TC 20 -15.8721 118.363 1 23 10 253
1957016S11127 1957 7 SI WA NOT_NAMED 1957-01-20 01:00:00 TS -15.9049 118.125 995 bom main 464 464 P_____O__PP___ SH141957 -15.8547 118.147 20 -1 -16.0000 118.000 995 4 -15.8547 118.147 TC 20 -15.9103 118.207 1 23 10 252
1957016S11127 1957 7 SI WA NOT_NAMED 1957-01-20 03:00:00 TS -16.0129 117.778 main 478 474 P_____P__PP___ SH141957 -15.9723 117.830 20 -1 -16.1323 117.577 995 -15.9723 117.830 TC 20 -15.9748 117.876 1 24 11 253
1957016S11127 1957 7 SI WA NOT_NAMED 1957-01-20 04:00:00 TS -16.0623 117.596 main 474 474 P_____P__PO___ SH141957 -16.0259 117.663 20 -1 -16.1973 117.358 995 -16.0259 117.663 TC 20 -16.0000 117.700 1 25 11 257
1957016S11127 1957 7 SI WA NOT_NAMED 1957-01-20 05:40:00 TS -16.1262 117.277 995 bom main 486 490 P_____O__PP___ SH141957 -16.0919 117.363 20 -1 -16.3000 117.000 995 -16.0919 117.363 TC 20 -16.0212 117.380 1 23 11 259
1957016S11127 1957 7 SI WA NOT_NAMED 1957-01-20 06:00:00 TS -16.1355 117.212 main 490 484 O_____P__OP___ jtwc_sh SH141957 -16.1000 117.300 20 -1 -16.3182 116.933 -16.1000 117.300 TC 20 -16.0237 117.313 1 23 12 267
1957016S11127 1957 7 SI WA NOT_NAMED 1957-01-20 09:00:00 TS -16.1576 116.592 main 492 492 P_____P__PP___ SH141957 -16.0726 116.657 20 -1 -16.4578 116.372 -16.0726 116.657 TC 20 -16.0275 116.682 1 20 12 270
1957016S11127 1957 7 SI WA NOT_NAMED 1957-01-20 12:00:00 TS -16.1435 115.975 main 508 508 O_____P__OP___ jtwc_sh SH141957 -16.0000 116.000 20 -1 -16.5620 115.870 -16.0000 116.000 TC 20 -16.0121 116.029 1 18 11 270
1957016S11127 1957 7 SI WA NOT_NAMED 1957-01-20 15:00:00 TS -16.1531 115.416 main 511 511 P_____P__PP___ SH141957 -15.9848 115.428 -1 -16.6431 115.411 -15.9848 115.428 TC -15.9997 115.398 1 15 11 269
1957016S11127 1957 7 SI WA NOT_NAMED 1957-01-20 16:00:00 TS -16.1600 115.240 main 517 517 P_____P__PO___ SH141957 -15.9865 115.248 -1 -16.6671 115.265 -15.9865 115.248 TC -16.0000 115.200 1 15 10 267
1957016S11127 1957 7 SI WA NOT_NAMED 1957-01-20 18:00:00 TS -16.1770 114.907 main 527 527 O_____P__OP___ jtwc_sh SH141957 -16.0000 114.900 -1 -16.7131 114.981 -16.0000 114.900 TC -15.9951 114.846 1 15 9 266
1957016S11127 1957 7 SI WA NOT_NAMED 1957-01-20 21:00:00 TS -16.2135 114.422 main 548 548 P_____P__PP___ SH141957 -16.0349 114.385 -1 -16.7839 114.563 -16.0349 114.385 TC -16.0003 114.353 1 17 9 264
1957016S11127 1957 7 SI WA NOT_NAMED 1957-01-21 00:00:00 TS -16.2775 113.959 main 559 564 O_____P__OP___ jtwc_sh SH141957 -16.1000 113.900 -1 -16.8674 114.143 -16.1000 113.900 TC -16.0427 113.892 1 18 9 262
1957016S11127 1957 7 SI WA NOT_NAMED 1957-01-21 01:00:00 TS -16.3009 113.808 995 bom main 570 570 P_____O__PP___ SH141957 -16.1170 113.744 -1 -16.9000 114.000 995 -16.1170 113.744 TC -16.0694 113.743 1 18 9 259
1957016S11127 1957 7 SI WA NOT_NAMED 1957-01-21 03:00:00 TS -16.3615 113.509 main 578 578 P_____P__PP___ SH141957 -16.1624 113.442 -1 -16.9743 113.706 -16.1624 113.442 TC -16.1471 113.447 1 19 9 257
1957016S11127 1957 7 SI WA NOT_NAMED 1957-01-21 04:00:00 TS -16.4020 113.361 main 583 583 P_____P__PO___ SH141957 -16.1962 113.294 -1 -17.0158 113.555 -16.1962 113.294 TC -16.2000 113.300 1 20 9 247
1957016S11127 1957 7 SI WA NOT_NAMED 1957-01-21 06:00:00 TS -16.5408 113.071 main 590 586 O_____P__OP___ jtwc_sh SH141957 -16.3000 113.000 -1 -17.1068 113.246 -16.3000 113.000 TC -16.3359 113.004 1 19 10 240
1957016S11127 1957 7 SI WA NOT_NAMED 1957-01-21 09:00:00 TS -16.8091 112.626 main 589 565 P_____P__PP___ SH141957 -16.5627 112.553 -1 -17.2612 112.767 -16.5627 112.553 TC -16.6035 112.557 1 17 11 235
1957016S11127 1957 7 SI WA NOT_NAMED 1957-01-21 12:00:00 TS -17.1459 112.178 main 569 543 O_____P__OP___ jtwc_sh SH141957 -16.9000 112.100 -1 -17.4337 112.271 -16.9000 112.100 TC -16.9260 112.106 1 16 11 231
1957016S11127 1957 7 SI WA NOT_NAMED 1957-01-21 15:00:00 NR -17.5069 111.725 main 547 542 ______P___P___ SH141957 -1 -17.6207 111.762 TC -17.2795 111.652 1 15 11 230
1957016S11127 1957 7 SI WA NOT_NAMED 1957-01-21 16:00:00 NR -17.6284 111.571 main 542 533 ______P___O___ SH141957 -1 -17.6855 111.589 TC -17.4000 111.500 1 15 11 236
1957016S11127 1957 7 SI WA NOT_NAMED 1957-01-21 18:00:00 NR -17.8183 111.241 main 544 534 ______P_______ -1 -17.8183 111.241 1 11 244
1957016S11127 1957 7 SI WA NOT_NAMED 1957-01-21 21:00:00 NR -18.0228 110.712 main 556 553 ______P_______ -1 -18.0228 110.712 1 11 248
1957016S11127 1957 7 SI WA NOT_NAMED 1957-01-22 00:00:00 TS -18.2204 110.186 main 573 572 ______P_______ -1 -18.2306 110.179 1 11 248
1957016S11127 1957 7 SI WA NOT_NAMED 1957-01-22 01:00:00 NR -18.3000 110.000 1000 bom main 580 ______O_______ -1 -18.3000 110.000 1000 1 12 246

IBTrACS Databaseについて

本データベースは、米国NOAAが公開する1842年以降の世界の熱帯低気圧のベストトラックデータアーカイブInternational Best Track Archive for Climate Stewardship (IBTrACS)を、ウェブで閲覧しやすい形式に変換したものです。

最終更新日:2021-10-27